createdAt,value
2022-11-23T00:01:18.644Z,3.47
2022-11-23T00:03:48.253Z,4.00
2022-11-23T00:06:16.378Z,4.25
2022-11-23T00:08:44.652Z,3.55
2022-11-23T00:11:12.349Z,3.53
2022-11-23T00:13:40.638Z,3.22
2022-11-23T00:16:22.685Z,2.88
2022-11-23T00:18:53.056Z,2.85
2022-11-23T00:21:22.097Z,2.70
2022-11-23T00:23:49.830Z,3.13
2022-11-23T00:26:18.306Z,3.30
2022-11-23T00:28:46.185Z,3.42
2022-11-23T00:31:15.540Z,3.58
2022-11-23T00:33:43.753Z,3.20
2022-11-23T00:36:13.806Z,3.10
2022-11-23T00:38:42.787Z,3.15
2022-11-23T00:41:15.922Z,4.30
2022-11-23T00:43:43.656Z,2.78
2022-11-23T00:46:18.350Z,2.85
2022-11-23T00:48:47.676Z,3.20
2022-11-23T00:51:17.681Z,2.97
2022-11-23T00:53:45.081Z,3.38
2022-11-23T00:56:13.094Z,2.72
2022-11-23T00:58:41.172Z,3.00
2022-11-23T01:01:10.138Z,2.80
2022-11-23T01:03:39.820Z,2.92
2022-11-23T01:06:15.194Z,3.35
2022-11-23T01:08:43.190Z,3.10
2022-11-23T01:11:12.556Z,3.47
2022-11-23T01:13:41.291Z,2.95
2022-11-23T01:16:18.215Z,2.70
2022-11-23T01:18:57.046Z,2.75
2022-11-23T01:21:25.389Z,3.08
2022-11-23T01:23:53.121Z,3.88
2022-11-23T01:26:20.948Z,3.72
2022-11-23T01:28:48.550Z,3.92
2022-11-23T01:31:21.448Z,3.78
2022-11-23T01:33:56.102Z,3.23
2022-11-23T01:36:25.884Z,3.30
2022-11-23T01:38:53.478Z,3.00
2022-11-23T01:41:24.898Z,2.90
2022-11-23T01:43:52.392Z,3.45
2022-11-23T01:46:20.322Z,3.50
2022-11-23T01:48:52.582Z,3.72
2022-11-23T01:51:41.437Z,3.20
2022-11-23T01:54:26.706Z,3.60
2022-11-23T01:56:59.896Z,3.50
2022-11-23T01:59:29.169Z,3.65
2022-11-23T02:01:56.753Z,3.83
2022-11-23T02:04:31.375Z,4.00
2022-11-23T02:07:01.261Z,3.70
2022-11-23T02:09:31.910Z,4.20
2022-11-23T02:11:59.617Z,3.58
2022-11-23T02:14:27.486Z,3.40
2022-11-23T02:16:58.413Z,4.10
2022-11-23T02:20:00.424Z,3.90
2022-11-23T02:22:45.745Z,3.90
2022-11-23T02:25:27.921Z,3.38
2022-11-23T02:27:55.461Z,3.75
2022-11-23T02:30:22.577Z,3.95
2022-11-23T02:32:52.970Z,4.30
2022-11-23T02:35:20.192Z,4.55
2022-11-23T02:37:49.276Z,4.75
2022-11-23T02:40:28.398Z,4.30
2022-11-23T02:42:55.585Z,3.60
2022-11-23T02:45:37.799Z,4.38
2022-11-23T02:48:05.567Z,4.60
2022-11-23T02:50:32.773Z,4.28
2022-11-23T02:53:00.837Z,4.00
2022-11-23T02:55:28.135Z,4.95
2022-11-23T02:57:55.214Z,5.82
2022-11-23T03:00:22.341Z,4.40
2022-11-23T03:02:49.472Z,5.25
2022-11-23T03:05:16.785Z,3.55
2022-11-23T03:07:43.988Z,3.65
2022-11-23T03:10:13.965Z,3.72
2022-11-23T03:12:41.252Z,3.58
2022-11-23T03:15:09.537Z,3.13
2022-11-23T03:17:41.041Z,3.40
2022-11-23T03:20:12.300Z,2.80
2022-11-23T03:22:43.543Z,3.03
2022-11-23T03:25:12.662Z,2.50
2022-11-23T03:27:40.312Z,2.15
2022-11-23T03:30:09.497Z,2.38
2022-11-23T03:32:36.979Z,2.00
2022-11-23T03:35:05.189Z,2.10
2022-11-23T03:37:35.192Z,2.53
2022-11-23T03:40:02.943Z,2.08
2022-11-23T03:42:48.281Z,2.50
2022-11-23T03:45:15.514Z,2.30
2022-11-23T03:47:43.778Z,2.28
2022-11-23T03:50:10.957Z,2.85
2022-11-23T03:52:38.357Z,2.78
2022-11-23T03:55:05.949Z,2.33
2022-11-23T03:57:33.665Z,2.50
2022-11-23T04:00:04.225Z,2.10
2022-11-23T04:02:40.701Z,2.00
2022-11-23T04:05:13.711Z,2.30
2022-11-23T04:07:59.505Z,2.92
2022-11-23T04:10:27.466Z,2.83
2022-11-23T04:13:20.724Z,2.45
2022-11-23T04:15:47.805Z,2.53
2022-11-23T04:18:15.001Z,2.50
2022-11-23T04:20:42.637Z,2.58
2022-11-23T04:23:13.304Z,2.50
2022-11-23T04:25:41.662Z,3.08
2022-11-23T04:28:08.829Z,2.95
2022-11-23T04:30:36.101Z,2.70
2022-11-23T04:33:03.273Z,2.80
2022-11-23T04:35:30.812Z,3.35
2022-11-23T04:37:58.608Z,3.83
2022-11-23T04:40:28.987Z,3.55
2022-11-23T04:43:03.872Z,3.97
2022-11-23T04:45:38.394Z,4.45
2022-11-23T04:48:08.426Z,4.68
2022-11-23T04:50:40.466Z,3.85
2022-11-23T04:53:09.261Z,5.13
2022-11-23T04:55:42.190Z,4.90
2022-11-23T04:58:10.740Z,4.28
2022-11-23T05:00:37.871Z,3.80
2022-11-23T05:03:06.074Z,3.78
2022-11-23T05:05:38.843Z,2.83
2022-11-23T05:08:06.293Z,3.25
2022-11-23T05:10:46.322Z,3.30
2022-11-23T05:13:14.727Z,3.33
2022-11-23T05:15:42.018Z,4.05
2022-11-23T05:18:10.498Z,3.20
2022-11-23T05:20:39.917Z,3.83
2022-11-23T05:23:08.098Z,5.05
2022-11-23T05:25:40.561Z,5.10
2022-11-23T05:28:38.619Z,5.15
2022-11-23T05:31:03.736Z,7.30
2022-11-23T05:33:31.242Z,5.97
2022-11-23T05:35:58.406Z,5.47
2022-11-23T05:38:35.383Z,5.60
2022-11-23T05:41:06.592Z,4.72
2022-11-23T05:43:33.840Z,4.28
2022-11-23T05:46:02.466Z,4.85
2022-11-23T05:48:32.237Z,4.00
2022-11-23T05:51:04.793Z,4.05
2022-11-23T05:53:36.104Z,3.42
2022-11-23T05:56:17.000Z,3.78
2022-11-23T05:59:05.189Z,3.40
2022-11-23T06:01:34.707Z,3.53
2022-11-23T06:04:03.959Z,3.33
2022-11-23T06:06:36.625Z,2.73
2022-11-23T06:09:04.138Z,2.78
2022-11-23T06:11:32.549Z,2.47
2022-11-23T06:14:08.762Z,5.90
2022-11-23T06:16:39.082Z,6.25
2022-11-23T06:19:30.446Z,4.97
2022-11-23T06:21:58.386Z,2.70
2022-11-23T06:24:27.329Z,4.53
2022-11-23T06:27:18.350Z,3.50
2022-11-23T06:29:47.141Z,3.80
2022-11-23T06:32:15.238Z,2.30
2022-11-23T06:34:43.001Z,4.20
2022-11-23T06:37:10.679Z,2.10
2022-11-23T06:39:37.912Z,1.92
2022-11-23T06:42:31.249Z,1.50
2022-11-23T06:44:54.155Z,2.33
2022-11-23T06:47:26.198Z,1.50
2022-11-23T06:49:54.975Z,1.55
2022-11-23T06:52:27.175Z,2.17
2022-11-23T06:54:55.161Z,1.50
2022-11-23T06:57:24.526Z,1.90
2022-11-23T06:59:52.154Z,1.58
2022-11-23T07:02:25.721Z,1.90
2022-11-23T07:04:55.531Z,1.38
2022-11-23T07:07:22.769Z,1.67
2022-11-23T07:10:01.664Z,1.60
2022-11-23T07:12:38.736Z,1.80
2022-11-23T07:15:07.241Z,1.92
2022-11-23T07:17:41.760Z,1.70
2022-11-23T07:20:12.168Z,1.50
2022-11-23T07:22:39.919Z,1.80
2022-11-23T07:25:08.147Z,2.05
2022-11-23T07:27:35.266Z,1.52
2022-11-23T07:30:03.702Z,2.45
2022-11-23T07:32:30.824Z,2.15
2022-11-23T07:34:58.036Z,1.85
2022-11-23T07:37:26.790Z,2.17
2022-11-23T07:39:57.975Z,2.30
2022-11-23T07:42:34.481Z,3.20
2022-11-23T07:45:04.755Z,7.50
2022-11-23T07:47:32.528Z,8.15
2022-11-23T07:49:59.678Z,9.75
2022-11-23T07:52:27.012Z,11.13
2022-11-23T07:54:54.096Z,10.05
2022-11-23T07:57:21.197Z,8.13
2022-11-23T07:59:48.282Z,5.40
2022-11-23T08:02:16.022Z,6.00
2022-11-23T08:04:43.261Z,4.30
2022-11-23T08:07:10.420Z,4.13
2022-11-23T08:09:37.810Z,3.72
2022-11-23T08:12:05.502Z,2.67
2022-11-23T08:14:32.826Z,2.53
2022-11-23T08:16:59.995Z,2.05
2022-11-23T08:19:27.068Z,1.52
2022-11-23T08:21:54.177Z,1.73
2022-11-23T08:24:21.240Z,1.75
2022-11-23T08:26:48.809Z,1.85
2022-11-23T08:29:15.942Z,1.60
2022-11-23T08:31:43.739Z,1.45
2022-11-23T08:34:10.837Z,1.95
2022-11-23T08:36:38.001Z,1.67
2022-11-23T08:39:05.086Z,1.65
2022-11-23T08:41:32.411Z,1.67
2022-11-23T08:43:59.489Z,1.60
2022-11-23T08:46:26.591Z,1.80
2022-11-23T08:48:53.650Z,1.58
2022-11-23T08:51:22.872Z,1.98
2022-11-23T08:53:50.892Z,1.60
2022-11-23T08:56:18.306Z,2.22
2022-11-23T08:58:46.080Z,2.17
2022-11-23T09:01:15.135Z,2.00
2022-11-23T09:03:42.566Z,2.40
2022-11-23T09:06:10.157Z,2.78
2022-11-23T09:08:37.569Z,3.22
2022-11-23T09:11:07.746Z,2.50
2022-11-23T09:13:37.234Z,2.97
2022-11-23T09:16:06.818Z,3.28
2022-11-23T09:18:35.419Z,3.13
2022-11-23T09:21:04.981Z,2.55
2022-11-23T09:23:32.357Z,2.88
2022-11-23T09:26:01.129Z,3.45
2022-11-23T09:28:28.461Z,3.97
2022-11-23T09:30:56.787Z,2.58
2022-11-23T09:33:24.806Z,2.60
2022-11-23T09:35:59.174Z,2.75
2022-11-23T09:38:51.592Z,2.83
2022-11-23T09:41:51.316Z,2.00
2022-11-23T09:44:24.282Z,2.17
2022-11-23T09:47:12.613Z,2.65
2022-11-23T09:49:51.594Z,2.25
2022-11-23T09:52:22.456Z,2.78
2022-11-23T09:54:53.769Z,2.17
2022-11-23T09:57:25.624Z,2.25
2022-11-23T09:59:59.052Z,2.80
2022-11-23T10:02:31.221Z,2.75
2022-11-23T10:05:00.182Z,3.10
2022-11-23T10:07:50.203Z,3.10
2022-11-23T10:10:54.485Z,2.40
2022-11-23T10:13:44.819Z,2.70
2022-11-23T10:16:26.125Z,2.88
2022-11-23T10:19:14.673Z,2.58
2022-11-23T10:22:12.606Z,2.60
2022-11-23T10:24:47.914Z,2.70
2022-11-23T10:27:18.553Z,2.92
2022-11-23T10:29:45.848Z,2.67
2022-11-23T10:32:22.338Z,2.88
2022-11-23T10:34:59.228Z,2.00
2022-11-23T10:37:26.504Z,2.33
2022-11-23T10:39:53.650Z,2.35
2022-11-23T10:42:44.694Z,2.08
2022-11-23T10:45:23.904Z,2.17
2022-11-23T10:47:55.043Z,1.95
2022-11-23T10:50:26.556Z,3.17
2022-11-23T10:53:22.427Z,1.80
2022-11-23T10:55:54.813Z,1.90
2022-11-23T10:58:48.108Z,2.63
2022-11-23T11:01:19.738Z,2.10
2022-11-23T11:03:46.897Z,2.67
2022-11-23T11:06:22.902Z,2.30
2022-11-23T11:08:54.376Z,2.03
2022-11-23T11:11:26.056Z,1.88
2022-11-23T11:14:06.530Z,2.90
2022-11-23T11:16:36.101Z,2.33
2022-11-23T11:19:29.062Z,2.28
2022-11-23T11:21:57.397Z,2.60
2022-11-23T11:24:37.084Z,2.38
2022-11-23T11:27:13.420Z,2.03
2022-11-23T11:29:53.546Z,2.15
2022-11-23T11:32:20.568Z,1.90
2022-11-23T11:35:16.147Z,2.08
2022-11-23T11:37:49.835Z,1.65
2022-11-23T11:40:28.546Z,2.08
2022-11-23T11:43:01.045Z,1.90
2022-11-23T11:45:34.169Z,2.20
2022-11-23T11:48:09.080Z,2.00
2022-11-23T11:50:46.584Z,2.05
2022-11-23T11:53:25.166Z,2.80
2022-11-23T11:56:07.264Z,2.42
2022-11-23T11:58:40.286Z,2.95
2022-11-23T12:01:28.999Z,3.00
2022-11-23T12:04:01.094Z,2.30
2022-11-23T12:06:42.196Z,2.90
2022-11-23T12:09:31.491Z,2.92
2022-11-23T12:11:58.929Z,2.97
2022-11-23T12:14:26.834Z,3.03
2022-11-23T12:17:32.348Z,3.33
2022-11-23T12:20:15.596Z,2.85
2022-11-23T12:23:27.613Z,2.40
2022-11-23T12:26:03.628Z,2.30
2022-11-23T12:29:11.870Z,2.20
2022-11-23T12:31:52.009Z,2.05
2022-11-23T12:34:34.209Z,3.13
2022-11-23T12:37:36.618Z,2.33
2022-11-23T12:40:20.385Z,2.40
2022-11-23T12:42:55.285Z,2.58
2022-11-23T12:45:57.110Z,2.50
2022-11-23T12:48:53.778Z,2.28
2022-11-23T12:51:33.604Z,2.40
2022-11-23T12:54:23.549Z,2.35
2022-11-23T12:57:09.041Z,2.47
2022-11-23T13:00:02.621Z,2.97
2022-11-23T13:02:56.596Z,3.58
2022-11-23T13:05:48.930Z,2.63
2022-11-23T13:08:41.556Z,2.35
2022-11-23T13:11:32.237Z,2.58
2022-11-23T13:14:35.607Z,2.70
2022-11-23T13:17:30.424Z,2.67
2022-11-23T13:20:24.981Z,3.08
2022-11-23T13:22:52.959Z,2.97
2022-11-23T13:25:22.141Z,3.22
2022-11-23T13:27:49.177Z,3.65
2022-11-23T13:30:32.112Z,2.85
2022-11-23T13:33:23.715Z,2.53
2022-11-23T13:35:59.987Z,2.25
2022-11-23T13:38:37.265Z,3.03
2022-11-23T13:41:28.002Z,2.72
2022-11-23T13:44:19.735Z,3.03
2022-11-23T13:47:19.129Z,2.75
2022-11-23T13:49:52.049Z,3.47
2022-11-23T13:52:25.246Z,2.45
2022-11-23T13:55:11.121Z,3.17
2022-11-23T13:57:42.704Z,3.58
2022-11-23T14:00:47.347Z,2.92
2022-11-23T14:03:42.257Z,3.42
2022-11-23T14:06:18.446Z,3.20
2022-11-23T14:08:47.428Z,2.83
2022-11-23T14:11:20.045Z,2.95
2022-11-23T14:13:58.461Z,3.40
2022-11-23T14:17:04.869Z,3.20
2022-11-23T14:20:00.965Z,3.22
2022-11-23T14:22:30.803Z,3.28
2022-11-23T14:25:00.963Z,3.53
2022-11-23T14:28:06.272Z,3.30
2022-11-23T14:30:51.703Z,3.55
2022-11-23T14:33:52.386Z,3.20
2022-11-23T14:36:32.732Z,3.78
2022-11-23T14:39:27.936Z,3.67
2022-11-23T14:41:59.385Z,4.55
2022-11-23T14:44:32.892Z,4.15
2022-11-23T14:47:05.462Z,5.38
2022-11-23T14:49:33.185Z,3.53
2022-11-23T14:52:03.210Z,4.20
2022-11-23T14:54:32.315Z,4.20
2022-11-23T14:57:03.253Z,4.22
2022-11-23T14:59:37.605Z,4.50
2022-11-23T15:02:17.477Z,5.47
2022-11-23T15:05:02.959Z,4.18
2022-11-23T15:08:05.842Z,4.20
2022-11-23T15:10:54.993Z,3.95
2022-11-23T15:13:27.924Z,4.32
2022-11-23T15:15:56.775Z,4.40
2022-11-23T15:18:28.464Z,3.80
2022-11-23T15:20:58.824Z,4.25
2022-11-23T15:23:49.601Z,4.05
2022-11-23T15:26:49.187Z,4.68
2022-11-23T15:29:33.799Z,4.10
2022-11-23T15:34:51.138Z,4.28
2022-11-23T15:37:18.661Z,4.43
2022-11-23T15:39:46.925Z,4.40
2022-11-23T15:42:18.390Z,4.85
2022-11-23T15:44:50.751Z,3.90
2022-11-23T15:47:27.689Z,4.13
2022-11-23T15:50:09.978Z,5.10
2022-11-23T15:52:38.172Z,5.10
2022-11-23T15:55:14.593Z,4.88
2022-11-23T15:57:42.656Z,5.63
2022-11-23T16:00:22.596Z,5.70
2022-11-23T16:02:49.966Z,6.03
2022-11-23T16:05:22.586Z,5.80
2022-11-23T16:07:50.609Z,5.97
2022-11-23T16:10:24.546Z,6.10
2022-11-23T16:12:57.354Z,6.18
2022-11-23T16:15:34.056Z,5.95
2022-11-23T16:18:02.496Z,6.10
2022-11-23T16:20:29.952Z,5.95
2022-11-23T16:23:00.090Z,6.88
2022-11-23T16:25:32.863Z,6.53
2022-11-23T16:28:40.511Z,6.20
2022-11-23T16:31:25.915Z,5.72
2022-11-23T16:33:53.041Z,6.00
2022-11-23T16:36:20.116Z,6.63
2022-11-23T16:38:47.203Z,6.20
2022-11-23T16:41:14.302Z,5.50
2022-11-23T16:43:41.377Z,8.23
2022-11-23T16:46:09.382Z,6.85
2022-11-23T16:48:41.922Z,7.43
2022-11-23T16:51:14.399Z,7.68
2022-11-23T16:56:33.913Z,7.15
2022-11-23T16:59:01.061Z,7.47
2022-11-23T17:01:32.558Z,8.32
2022-11-23T17:03:59.975Z,8.27
2022-11-23T17:06:27.243Z,9.45
2022-11-23T17:09:03.083Z,8.43
2022-11-23T17:11:37.089Z,9.07
2022-11-23T17:14:04.721Z,10.00
2022-11-23T17:16:34.110Z,10.10
2022-11-23T17:19:01.256Z,10.05
2022-11-23T17:21:28.343Z,9.55
2022-11-23T17:23:56.400Z,10.65
2022-11-23T17:26:52.150Z,12.18
2022-11-23T17:29:20.512Z,11.35
2022-11-23T17:31:49.479Z,11.55
2022-11-23T17:34:17.923Z,11.25
2022-11-23T17:36:46.749Z,13.20
2022-11-23T17:39:32.288Z,14.93
2022-11-23T17:42:04.552Z,13.68
2022-11-23T17:44:32.623Z,13.05
2022-11-23T17:47:01.109Z,13.18
2022-11-23T17:49:28.432Z,14.13
2022-11-23T17:51:55.879Z,14.05
2022-11-23T17:54:23.845Z,13.20
2022-11-23T17:56:51.812Z,12.45
2022-11-23T17:59:19.446Z,15.07
2022-11-23T18:01:46.627Z,17.65
2022-11-23T18:04:13.816Z,14.25
2022-11-23T18:06:40.980Z,12.32
2022-11-23T18:09:09.269Z,10.73
2022-11-23T18:11:36.353Z,10.60
2022-11-23T18:14:04.232Z,10.30
2022-11-23T18:16:31.437Z,9.77
2022-11-23T18:18:58.516Z,11.20
2022-11-23T18:21:25.808Z,11.38
2022-11-23T18:23:52.944Z,12.15
2022-11-23T18:26:22.411Z,12.85
2022-11-23T18:28:50.268Z,12.30
2022-11-23T18:31:18.151Z,15.32
2022-11-23T18:33:46.245Z,12.93
2022-11-23T18:36:13.910Z,12.02
2022-11-23T18:38:44.682Z,12.70
2022-11-23T18:41:13.359Z,12.00
2022-11-23T18:43:40.481Z,12.38
2022-11-23T18:46:10.073Z,14.20
2022-11-23T18:48:37.758Z,11.85
2022-11-23T18:51:05.373Z,11.30
2022-11-23T18:53:33.066Z,13.10
2022-11-23T18:56:04.254Z,11.90
2022-11-23T18:58:38.913Z,12.70
2022-11-23T19:01:20.590Z,13.90
2022-11-23T19:03:49.722Z,12.63
2022-11-23T19:06:19.020Z,13.90
2022-11-23T19:08:48.644Z,13.88
2022-11-23T19:11:19.471Z,14.88
2022-11-23T19:13:48.977Z,14.70
2022-11-23T19:16:34.001Z,13.95
2022-11-23T19:19:04.204Z,13.13
2022-11-23T19:21:32.884Z,13.88
2022-11-23T19:24:00.636Z,16.38
2022-11-23T19:26:28.701Z,15.80
2022-11-23T19:28:56.181Z,15.55
2022-11-23T19:31:26.557Z,16.23
2022-11-23T19:33:57.774Z,17.55
2022-11-23T19:36:25.483Z,19.52
2022-11-23T19:38:55.192Z,20.42
2022-11-23T19:41:28.198Z,19.10
2022-11-23T19:43:58.899Z,18.58
2022-11-23T19:46:26.921Z,16.05
2022-11-23T19:48:55.912Z,16.88
2022-11-23T19:51:23.743Z,14.48
2022-11-23T19:53:51.085Z,14.25
2022-11-23T19:56:23.918Z,14.13
2022-11-23T19:58:56.604Z,14.38
2022-11-23T20:01:26.578Z,14.88
2022-11-23T20:03:57.113Z,13.57
2022-11-23T20:06:27.223Z,13.68
2022-11-23T20:08:55.129Z,14.13
2022-11-23T20:11:22.898Z,12.07
2022-11-23T20:13:50.660Z,13.82
2022-11-23T20:16:19.817Z,18.77
2022-11-23T20:18:54.233Z,22.40
2022-11-23T20:21:21.327Z,18.75
2022-11-23T20:23:50.549Z,15.70
2022-11-23T20:26:20.547Z,12.40
2022-11-23T20:28:51.799Z,12.77
2022-11-23T20:31:21.686Z,13.40
2022-11-23T20:33:52.474Z,12.95
2022-11-23T20:36:26.314Z,13.05
2022-11-23T20:41:27.982Z,11.85
2022-11-23T20:44:00.941Z,11.73
2022-11-23T20:47:01.356Z,11.98
2022-11-23T20:49:17.801Z,11.40
2022-11-23T20:51:44.884Z,12.57
2022-11-23T20:54:12.244Z,11.25
2022-11-23T20:56:39.434Z,11.27
2022-11-23T20:59:06.650Z,12.35
2022-11-23T21:01:34.523Z,10.13
2022-11-23T21:04:01.750Z,10.18
2022-11-23T21:06:28.916Z,12.02
2022-11-23T21:08:56.438Z,11.50
2022-11-23T21:11:44.872Z,12.95
2022-11-23T21:14:24.355Z,9.45
2022-11-23T21:16:54.917Z,9.73
2022-11-23T21:19:24.605Z,9.98
2022-11-23T21:21:52.711Z,11.00
2022-11-23T21:24:20.558Z,10.02
2022-11-23T21:26:48.195Z,10.57
2022-11-23T21:29:16.427Z,8.82
2022-11-23T21:31:45.656Z,8.60
2022-11-23T21:34:19.312Z,8.25
2022-11-23T21:36:46.615Z,7.75
2022-11-23T21:39:14.259Z,8.55
2022-11-23T21:41:41.955Z,8.52
2022-11-23T21:44:10.054Z,7.75
2022-11-23T21:46:38.910Z,8.15
2022-11-23T21:49:07.029Z,8.13
2022-11-23T21:51:35.514Z,7.13
2022-11-23T21:54:05.520Z,7.25
2022-11-23T21:56:33.093Z,7.85
2022-11-23T21:59:00.296Z,8.13
2022-11-23T22:01:32.760Z,7.95
2022-11-23T22:04:02.065Z,7.35
2022-11-23T22:06:29.571Z,7.85
2022-11-23T22:08:59.612Z,7.95
2022-11-23T22:11:29.317Z,7.85
2022-11-23T22:14:02.061Z,7.63
2022-11-23T22:16:34.807Z,8.43
2022-11-23T22:19:02.678Z,7.82
2022-11-23T22:21:34.467Z,8.60
2022-11-23T22:24:02.165Z,7.72
2022-11-23T22:26:29.290Z,7.72
2022-11-23T22:28:57.034Z,7.85
2022-11-23T22:31:25.405Z,7.60
2022-11-23T22:33:53.366Z,8.10
2022-11-23T22:36:24.374Z,6.57
2022-11-23T22:39:02.857Z,7.60
2022-11-23T22:41:36.122Z,7.53
2022-11-23T22:44:05.373Z,7.18
2022-11-23T22:46:32.643Z,7.68
2022-11-23T22:48:59.964Z,8.35
2022-11-23T22:51:28.678Z,7.50
2022-11-23T22:54:00.583Z,5.85
2022-11-23T22:56:29.212Z,7.18
2022-11-23T22:58:56.672Z,8.15
2022-11-23T23:01:26.848Z,7.53
2022-11-23T23:03:56.107Z,7.55
2022-11-23T23:06:25.458Z,7.40
2022-11-23T23:08:57.725Z,6.75
2022-11-23T23:11:26.721Z,6.93
2022-11-23T23:13:54.458Z,6.68
2022-11-23T23:16:22.555Z,6.22
2022-11-23T23:18:51.315Z,5.55
2022-11-23T23:21:21.082Z,6.50
2022-11-23T23:23:50.338Z,6.05
2022-11-23T23:26:20.819Z,7.35
2022-11-23T23:28:48.549Z,5.85
2022-11-23T23:31:17.364Z,6.50
2022-11-23T23:33:45.807Z,5.97
2022-11-23T23:36:19.686Z,5.47
2022-11-23T23:41:14.806Z,4.97
2022-11-23T23:43:42.839Z,5.13
2022-11-23T23:46:12.302Z,5.13
2022-11-23T23:48:41.112Z,4.80
2022-11-23T23:51:11.546Z,5.10
2022-11-23T23:53:39.582Z,5.85
2022-11-23T23:56:32.776Z,5.72
2022-11-23T23:59:00.204Z,5.43
